sensor_id;sensor_type;location;lat;lon;timestamp;P1;durP1;ratioP1;P2;durP2;ratioP2
23608;SDS011;11982;50.810;4.442;2023-03-11T00:02:12;12.32;;;4.03;;
23608;SDS011;11982;50.810;4.442;2023-03-11T00:04:38;14.20;;;4.35;;
23608;SDS011;11982;50.810;4.442;2023-03-11T00:07:07;15.77;;;4.40;;
23608;SDS011;11982;50.810;4.442;2023-03-11T00:09:34;11.65;;;4.07;;
23608;SDS011;11982;50.810;4.442;2023-03-11T00:12:00;13.10;;;4.20;;
23608;SDS011;11982;50.810;4.442;2023-03-11T00:14:26;15.63;;;4.28;;
23608;SDS011;11982;50.810;4.442;2023-03-11T00:16:55;21.50;;;4.20;;
23608;SDS011;11982;50.810;4.442;2023-03-11T00:19:21;10.77;;;4.30;;
23608;SDS011;11982;50.810;4.442;2023-03-11T00:21:46;20.10;;;4.18;;
23608;SDS011;11982;50.810;4.442;2023-03-11T00:24:12;10.07;;;3.90;;
23608;SDS011;11982;50.810;4.442;2023-03-11T00:26:38;16.52;;;4.35;;
23608;SDS011;11982;50.810;4.442;2023-03-11T00:29:03;16.63;;;3.88;;
23608;SDS011;11982;50.810;4.442;2023-03-11T00:31:29;14.90;;;3.70;;
23608;SDS011;11982;50.810;4.442;2023-03-11T00:33:56;12.63;;;3.60;;
23608;SDS011;11982;50.810;4.442;2023-03-11T00:36:32;19.25;;;3.85;;
23608;SDS011;11982;50.810;4.442;2023-03-11T00:38:58;18.40;;;4.10;;
23608;SDS011;11982;50.810;4.442;2023-03-11T00:41:26;16.02;;;4.25;;
23608;SDS011;11982;50.810;4.442;2023-03-11T00:43:52;15.05;;;4.43;;
23608;SDS011;11982;50.810;4.442;2023-03-11T00:46:18;12.98;;;3.80;;
23608;SDS011;11982;50.810;4.442;2023-03-11T00:48:44;10.32;;;3.88;;
23608;SDS011;11982;50.810;4.442;2023-03-11T00:51:13;14.20;;;3.78;;
23608;SDS011;11982;50.810;4.442;2023-03-11T00:53:40;13.88;;;3.72;;
23608;SDS011;11982;50.810;4.442;2023-03-11T00:56:07;19.50;;;4.00;;
23608;SDS011;11982;50.810;4.442;2023-03-11T00:58:33;11.43;;;4.43;;
23608;SDS011;11982;50.810;4.442;2023-03-11T01:01:00;15.35;;;4.15;;
23608;SDS011;11982;50.810;4.442;2023-03-11T01:03:30;16.85;;;3.88;;
23608;SDS011;11982;50.810;4.442;2023-03-11T01:05:56;19.58;;;4.28;;
23608;SDS011;11982;50.810;4.442;2023-03-11T01:08:21;13.20;;;3.80;;
23608;SDS011;11982;50.810;4.442;2023-03-11T01:10:47;15.55;;;4.35;;
23608;SDS011;11982;50.810;4.442;2023-03-11T01:13:13;14.40;;;3.95;;
23608;SDS011;11982;50.810;4.442;2023-03-11T01:15:38;11.30;;;4.15;;
23608;SDS011;11982;50.810;4.442;2023-03-11T01:18:04;13.40;;;3.83;;
23608;SDS011;11982;50.810;4.442;2023-03-11T01:20:31;13.00;;;4.13;;
23608;SDS011;11982;50.810;4.442;2023-03-11T01:22:56;11.40;;;3.95;;
23608;SDS011;11982;50.810;4.442;2023-03-11T01:25:22;14.25;;;4.10;;
23608;SDS011;11982;50.810;4.442;2023-03-11T01:27:48;18.52;;;4.13;;
23608;SDS011;11982;50.810;4.442;2023-03-11T01:30:16;12.52;;;3.97;;
23608;SDS011;11982;50.810;4.442;2023-03-11T01:32:43;15.80;;;4.13;;
23608;SDS011;11982;50.810;4.442;2023-03-11T01:35:13;18.17;;;4.53;;
23608;SDS011;11982;50.810;4.442;2023-03-11T01:37:40;10.80;;;3.75;;
23608;SDS011;11982;50.810;4.442;2023-03-11T01:40:06;20.20;;;5.22;;
23608;SDS011;11982;50.810;4.442;2023-03-11T01:42:36;12.02;;;4.03;;
23608;SDS011;11982;50.810;4.442;2023-03-11T01:45:08;11.57;;;4.03;;
23608;SDS011;11982;50.810;4.442;2023-03-11T01:47:49;17.25;;;4.13;;
23608;SDS011;11982;50.810;4.442;2023-03-11T01:50:15;16.70;;;4.22;;
23608;SDS011;11982;50.810;4.442;2023-03-11T01:52:41;16.52;;;4.13;;
23608;SDS011;11982;50.810;4.442;2023-03-11T01:55:08;24.70;;;4.95;;
23608;SDS011;11982;50.810;4.442;2023-03-11T01:57:35;16.58;;;4.63;;
23608;SDS011;11982;50.810;4.442;2023-03-11T02:00:06;15.10;;;4.10;;
23608;SDS011;11982;50.810;4.442;2023-03-11T02:02:35;17.88;;;4.53;;
23608;SDS011;11982;50.810;4.442;2023-03-11T02:05:11;18.50;;;5.35;;
23608;SDS011;11982;50.810;4.442;2023-03-11T02:07:37;15.30;;;4.03;;
23608;SDS011;11982;50.810;4.442;2023-03-11T02:10:04;17.73;;;4.50;;
23608;SDS011;11982;50.810;4.442;2023-03-11T02:12:33;14.77;;;5.28;;
23608;SDS011;11982;50.810;4.442;2023-03-11T02:15:00;16.27;;;4.40;;
23608;SDS011;11982;50.810;4.442;2023-03-11T02:17:28;12.02;;;4.82;;
23608;SDS011;11982;50.810;4.442;2023-03-11T02:22:29;18.00;;;5.00;;
23608;SDS011;11982;50.810;4.442;2023-03-11T02:27:59;15.98;;;5.22;;
23608;SDS011;11982;50.810;4.442;2023-03-11T02:30:26;15.25;;;4.63;;
23608;SDS011;11982;50.810;4.442;2023-03-11T02:32:53;18.10;;;5.45;;
23608;SDS011;11982;50.810;4.442;2023-03-11T02:35:20;16.13;;;5.32;;
23608;SDS011;11982;50.810;4.442;2023-03-11T02:37:48;24.42;;;5.90;;
23608;SDS011;11982;50.810;4.442;2023-03-11T02:42:58;18.20;;;5.18;;
23608;SDS011;11982;50.810;4.442;2023-03-11T02:45:25;17.48;;;5.30;;
23608;SDS011;11982;50.810;4.442;2023-03-11T02:47:54;23.33;;;5.80;;
23608;SDS011;11982;50.810;4.442;2023-03-11T02:50:22;15.73;;;5.30;;
23608;SDS011;11982;50.810;4.442;2023-03-11T02:52:49;26.08;;;6.22;;
23608;SDS011;11982;50.810;4.442;2023-03-11T02:55:16;18.08;;;5.30;;
23608;SDS011;11982;50.810;4.442;2023-03-11T02:57:44;23.20;;;5.78;;
23608;SDS011;11982;50.810;4.442;2023-03-11T03:00:11;21.02;;;6.38;;
23608;SDS011;11982;50.810;4.442;2023-03-11T03:02:40;15.23;;;5.40;;
23608;SDS011;11982;50.810;4.442;2023-03-11T03:05:07;18.83;;;5.00;;
23608;SDS011;11982;50.810;4.442;2023-03-11T03:07:34;21.90;;;5.97;;
23608;SDS011;11982;50.810;4.442;2023-03-11T03:10:00;20.77;;;6.35;;
23608;SDS011;11982;50.810;4.442;2023-03-11T03:12:26;17.75;;;5.93;;
23608;SDS011;11982;50.810;4.442;2023-03-11T03:14:52;15.80;;;5.28;;
23608;SDS011;11982;50.810;4.442;2023-03-11T03:17:17;18.20;;;5.32;;
23608;SDS011;11982;50.810;4.442;2023-03-11T03:19:43;17.48;;;5.50;;
23608;SDS011;11982;50.810;4.442;2023-03-11T03:22:09;21.02;;;5.50;;
23608;SDS011;11982;50.810;4.442;2023-03-11T03:24:35;24.02;;;5.93;;
23608;SDS011;11982;50.810;4.442;2023-03-11T03:27:00;19.40;;;6.05;;
23608;SDS011;11982;50.810;4.442;2023-03-11T03:29:26;16.17;;;5.10;;
23608;SDS011;11982;50.810;4.442;2023-03-11T03:31:52;20.70;;;5.40;;
23608;SDS011;11982;50.810;4.442;2023-03-11T03:34:18;18.00;;;5.57;;
23608;SDS011;11982;50.810;4.442;2023-03-11T03:36:44;16.55;;;5.10;;
23608;SDS011;11982;50.810;4.442;2023-03-11T03:39:10;14.70;;;5.25;;
23608;SDS011;11982;50.810;4.442;2023-03-11T03:41:35;16.05;;;5.45;;
23608;SDS011;11982;50.810;4.442;2023-03-11T03:44:01;19.90;;;5.45;;
23608;SDS011;11982;50.810;4.442;2023-03-11T03:46:27;17.92;;;5.13;;
23608;SDS011;11982;50.810;4.442;2023-03-11T03:48:53;23.65;;;5.25;;
23608;SDS011;11982;50.810;4.442;2023-03-11T03:51:20;19.55;;;5.35;;
23608;SDS011;11982;50.810;4.442;2023-03-11T03:53:46;24.45;;;5.30;;
23608;SDS011;11982;50.810;4.442;2023-03-11T03:56:13;16.35;;;5.20;;
23608;SDS011;11982;50.810;4.442;2023-03-11T03:58:40;17.75;;;5.57;;
23608;SDS011;11982;50.810;4.442;2023-03-11T04:01:06;15.23;;;5.00;;
23608;SDS011;11982;50.810;4.442;2023-03-11T04:03:33;13.90;;;5.03;;
23608;SDS011;11982;50.810;4.442;2023-03-11T04:06:10;17.77;;;5.13;;
23608;SDS011;11982;50.810;4.442;2023-03-11T04:08:42;13.73;;;5.20;;
23608;SDS011;11982;50.810;4.442;2023-03-11T04:11:07;16.20;;;5.07;;
23608;SDS011;11982;50.810;4.442;2023-03-11T04:13:33;16.83;;;5.20;;
23608;SDS011;11982;50.810;4.442;2023-03-11T04:15:59;17.17;;;4.60;;
23608;SDS011;11982;50.810;4.442;2023-03-11T04:18:27;18.17;;;4.43;;
23608;SDS011;11982;50.810;4.442;2023-03-11T04:20:53;17.95;;;4.80;;
23608;SDS011;11982;50.810;4.442;2023-03-11T04:23:18;19.17;;;4.80;;
23608;SDS011;11982;50.810;4.442;2023-03-11T04:25:44;11.88;;;5.20;;
23608;SDS011;11982;50.810;4.442;2023-03-11T04:28:10;12.80;;;4.53;;
23608;SDS011;11982;50.810;4.442;2023-03-11T04:30:35;16.63;;;5.18;;
23608;SDS011;11982;50.810;4.442;2023-03-11T04:33:01;16.40;;;4.68;;
23608;SDS011;11982;50.810;4.442;2023-03-11T04:35:27;23.88;;;5.38;;
23608;SDS011;11982;50.810;4.442;2023-03-11T04:37:52;13.65;;;4.68;;
23608;SDS011;11982;50.810;4.442;2023-03-11T04:40:18;17.15;;;4.93;;
23608;SDS011;11982;50.810;4.442;2023-03-11T04:42:44;16.15;;;4.88;;
23608;SDS011;11982;50.810;4.442;2023-03-11T04:45:10;20.15;;;4.70;;
23608;SDS011;11982;50.810;4.442;2023-03-11T04:47:36;21.55;;;5.88;;
23608;SDS011;11982;50.810;4.442;2023-03-11T04:50:02;20.52;;;6.13;;
23608;SDS011;11982;50.810;4.442;2023-03-11T04:52:28;13.75;;;5.28;;
23608;SDS011;11982;50.810;4.442;2023-03-11T04:54:53;14.57;;;5.53;;
23608;SDS011;11982;50.810;4.442;2023-03-11T04:57:19;19.08;;;5.18;;
23608;SDS011;11982;50.810;4.442;2023-03-11T04:59:45;15.60;;;5.35;;
23608;SDS011;11982;50.810;4.442;2023-03-11T05:02:11;20.67;;;5.53;;
23608;SDS011;11982;50.810;4.442;2023-03-11T05:04:37;16.58;;;5.50;;
23608;SDS011;11982;50.810;4.442;2023-03-11T05:07:02;17.83;;;5.85;;
23608;SDS011;11982;50.810;4.442;2023-03-11T05:09:28;19.08;;;5.07;;
23608;SDS011;11982;50.810;4.442;2023-03-11T05:11:54;14.65;;;5.85;;
23608;SDS011;11982;50.810;4.442;2023-03-11T05:14:20;16.02;;;5.88;;
23608;SDS011;11982;50.810;4.442;2023-03-11T05:16:45;14.30;;;4.85;;
23608;SDS011;11982;50.810;4.442;2023-03-11T05:19:11;20.67;;;5.70;;
23608;SDS011;11982;50.810;4.442;2023-03-11T05:21:55;18.23;;;6.00;;
23608;SDS011;11982;50.810;4.442;2023-03-11T05:24:22;20.25;;;5.32;;
23608;SDS011;11982;50.810;4.442;2023-03-11T05:26:49;26.05;;;8.10;;
23608;SDS011;11982;50.810;4.442;2023-03-11T05:29:15;21.63;;;7.75;;
23608;SDS011;11982;50.810;4.442;2023-03-11T05:31:40;15.82;;;6.13;;
23608;SDS011;11982;50.810;4.442;2023-03-11T05:34:06;14.88;;;6.40;;
23608;SDS011;11982;50.810;4.442;2023-03-11T05:36:32;21.38;;;5.95;;
23608;SDS011;11982;50.810;4.442;2023-03-11T05:38:57;17.95;;;5.88;;
23608;SDS011;11982;50.810;4.442;2023-03-11T05:41:23;19.27;;;5.97;;
23608;SDS011;11982;50.810;4.442;2023-03-11T05:43:49;20.23;;;6.07;;
23608;SDS011;11982;50.810;4.442;2023-03-11T05:46:14;15.05;;;5.80;;
23608;SDS011;11982;50.810;4.442;2023-03-11T05:48:40;20.95;;;6.30;;
23608;SDS011;11982;50.810;4.442;2023-03-11T05:51:06;16.27;;;5.72;;
23608;SDS011;11982;50.810;4.442;2023-03-11T05:53:33;20.52;;;6.97;;
23608;SDS011;11982;50.810;4.442;2023-03-11T05:55:59;18.15;;;6.32;;
23608;SDS011;11982;50.810;4.442;2023-03-11T05:58:26;21.70;;;6.65;;
23608;SDS011;11982;50.810;4.442;2023-03-11T06:00:53;21.30;;;5.78;;
23608;SDS011;11982;50.810;4.442;2023-03-11T06:03:18;22.13;;;6.60;;
23608;SDS011;11982;50.810;4.442;2023-03-11T06:05:44;13.82;;;6.20;;
23608;SDS011;11982;50.810;4.442;2023-03-11T06:08:11;17.30;;;5.97;;
23608;SDS011;11982;50.810;4.442;2023-03-11T06:10:37;19.60;;;6.47;;
23608;SDS011;11982;50.810;4.442;2023-03-11T06:13:02;18.75;;;6.03;;
23608;SDS011;11982;50.810;4.442;2023-03-11T06:15:28;15.82;;;7.07;;
23608;SDS011;11982;50.810;4.442;2023-03-11T06:17:54;27.35;;;7.22;;
23608;SDS011;11982;50.810;4.442;2023-03-11T06:20:19;22.45;;;6.75;;
23608;SDS011;11982;50.810;4.442;2023-03-11T06:22:48;28.40;;;7.03;;
23608;SDS011;11982;50.810;4.442;2023-03-11T06:25:17;25.83;;;7.10;;
23608;SDS011;11982;50.810;4.442;2023-03-11T06:27:43;19.20;;;6.97;;
23608;SDS011;11982;50.810;4.442;2023-03-11T06:30:14;18.25;;;6.15;;
23608;SDS011;11982;50.810;4.442;2023-03-11T06:32:42;18.48;;;6.55;;
23608;SDS011;11982;50.810;4.442;2023-03-11T06:35:09;17.00;;;6.93;;
23608;SDS011;11982;50.810;4.442;2023-03-11T06:37:35;19.13;;;6.45;;
23608;SDS011;11982;50.810;4.442;2023-03-11T06:40:01;19.13;;;6.47;;
23608;SDS011;11982;50.810;4.442;2023-03-11T06:42:29;18.10;;;6.97;;
23608;SDS011;11982;50.810;4.442;2023-03-11T06:44:55;21.52;;;6.55;;
23608;SDS011;11982;50.810;4.442;2023-03-11T06:47:20;20.67;;;6.70;;
23608;SDS011;11982;50.810;4.442;2023-03-11T06:49:46;26.52;;;7.57;;
23608;SDS011;11982;50.810;4.442;2023-03-11T06:52:12;14.27;;;6.63;;
23608;SDS011;11982;50.810;4.442;2023-03-11T06:54:37;21.55;;;7.28;;
23608;SDS011;11982;50.810;4.442;2023-03-11T06:57:05;22.33;;;11.73;;
23608;SDS011;11982;50.810;4.442;2023-03-11T06:59:32;24.10;;;11.20;;
23608;SDS011;11982;50.810;4.442;2023-03-11T07:01:58;16.25;;;8.05;;
23608;SDS011;11982;50.810;4.442;2023-03-11T07:04:24;21.58;;;7.60;;
23608;SDS011;11982;50.810;4.442;2023-03-11T07:06:50;24.35;;;7.95;;
23608;SDS011;11982;50.810;4.442;2023-03-11T07:09:15;29.45;;;8.18;;
23608;SDS011;11982;50.810;4.442;2023-03-11T07:11:41;33.10;;;8.63;;
23608;SDS011;11982;50.810;4.442;2023-03-11T07:14:07;20.13;;;7.70;;
23608;SDS011;11982;50.810;4.442;2023-03-11T07:16:33;19.08;;;7.80;;
23608;SDS011;11982;50.810;4.442;2023-03-11T07:18:59;19.73;;;8.70;;
23608;SDS011;11982;50.810;4.442;2023-03-11T07:21:27;22.55;;;8.65;;
23608;SDS011;11982;50.810;4.442;2023-03-11T07:23:54;21.38;;;7.63;;
23608;SDS011;11982;50.810;4.442;2023-03-11T07:26:21;22.08;;;8.38;;
23608;SDS011;11982;50.810;4.442;2023-03-11T07:28:47;19.20;;;7.32;;
23608;SDS011;11982;50.810;4.442;2023-03-11T07:31:15;19.52;;;7.72;;
23608;SDS011;11982;50.810;4.442;2023-03-11T07:33:42;21.33;;;8.23;;
23608;SDS011;11982;50.810;4.442;2023-03-11T07:36:09;18.88;;;8.13;;
23608;SDS011;11982;50.810;4.442;2023-03-11T07:38:39;19.10;;;8.52;;
23608;SDS011;11982;50.810;4.442;2023-03-11T07:41:06;23.92;;;8.60;;
23608;SDS011;11982;50.810;4.442;2023-03-11T07:43:31;22.73;;;9.00;;
23608;SDS011;11982;50.810;4.442;2023-03-11T07:46:03;24.27;;;8.82;;
23608;SDS011;11982;50.810;4.442;2023-03-11T07:48:35;24.10;;;8.52;;
23608;SDS011;11982;50.810;4.442;2023-03-11T07:51:06;25.98;;;10.57;;
23608;SDS011;11982;50.810;4.442;2023-03-11T07:53:35;18.92;;;9.38;;
23608;SDS011;11982;50.810;4.442;2023-03-11T07:56:01;23.20;;;10.48;;
23608;SDS011;11982;50.810;4.442;2023-03-11T07:58:28;28.15;;;10.90;;
23608;SDS011;11982;50.810;4.442;2023-03-11T08:00:54;24.67;;;9.88;;
23608;SDS011;11982;50.810;4.442;2023-03-11T08:03:21;27.02;;;10.32;;
23608;SDS011;11982;50.810;4.442;2023-03-11T08:05:48;35.67;;;10.00;;
23608;SDS011;11982;50.810;4.442;2023-03-11T08:08:14;23.15;;;10.88;;
23608;SDS011;11982;50.810;4.442;2023-03-11T08:10:40;23.35;;;10.23;;
23608;SDS011;11982;50.810;4.442;2023-03-11T08:13:06;26.33;;;8.75;;
23608;SDS011;11982;50.810;4.442;2023-03-11T08:15:32;22.50;;;12.32;;
23608;SDS011;11982;50.810;4.442;2023-03-11T08:17:58;17.73;;;9.15;;
23608;SDS011;11982;50.810;4.442;2023-03-11T08:20:23;24.73;;;9.30;;
23608;SDS011;11982;50.810;4.442;2023-03-11T08:22:49;18.63;;;9.60;;
23608;SDS011;11982;50.810;4.442;2023-03-11T08:25:15;22.30;;;9.60;;
23608;SDS011;11982;50.810;4.442;2023-03-11T08:27:40;29.40;;;10.52;;
23608;SDS011;11982;50.810;4.442;2023-03-11T08:30:07;21.63;;;10.10;;
23608;SDS011;11982;50.810;4.442;2023-03-11T08:32:33;27.38;;;12.15;;
23608;SDS011;11982;50.810;4.442;2023-03-11T08:34:59;22.40;;;10.07;;
23608;SDS011;11982;50.810;4.442;2023-03-11T08:37:24;32.70;;;10.75;;
23608;SDS011;11982;50.810;4.442;2023-03-11T08:39:50;20.50;;;9.57;;
23608;SDS011;11982;50.810;4.442;2023-03-11T08:42:16;18.92;;;8.13;;
23608;SDS011;11982;50.810;4.442;2023-03-11T08:44:42;22.95;;;7.95;;
23608;SDS011;11982;50.810;4.442;2023-03-11T08:47:08;22.00;;;8.10;;
23608;SDS011;11982;50.810;4.442;2023-03-11T08:49:34;16.92;;;6.78;;
23608;SDS011;11982;50.810;4.442;2023-03-11T08:52:02;12.82;;;5.70;;
23608;SDS011;11982;50.810;4.442;2023-03-11T08:54:28;18.90;;;5.55;;
23608;SDS011;11982;50.810;4.442;2023-03-11T08:56:53;19.45;;;6.25;;
23608;SDS011;11982;50.810;4.442;2023-03-11T08:59:19;16.73;;;4.97;;
23608;SDS011;11982;50.810;4.442;2023-03-11T09:01:45;14.73;;;4.78;;
23608;SDS011;11982;50.810;4.442;2023-03-11T09:04:11;17.20;;;4.15;;
23608;SDS011;11982;50.810;4.442;2023-03-11T09:06:41;6.75;;;2.00;;
23608;SDS011;11982;50.810;4.442;2023-03-11T09:09:08;19.77;;;2.80;;
23608;SDS011;11982;50.810;4.442;2023-03-11T09:11:35;10.68;;;2.25;;
23608;SDS011;11982;50.810;4.442;2023-03-11T09:14:01;13.00;;;2.33;;
23608;SDS011;11982;50.810;4.442;2023-03-11T09:16:27;18.90;;;2.17;;
23608;SDS011;11982;50.810;4.442;2023-03-11T09:18:53;8.45;;;1.80;;
23608;SDS011;11982;50.810;4.442;2023-03-11T09:21:19;9.48;;;2.10;;
23608;SDS011;11982;50.810;4.442;2023-03-11T09:23:45;8.20;;;2.20;;
23608;SDS011;11982;50.810;4.442;2023-03-11T09:26:11;14.18;;;2.58;;
23608;SDS011;11982;50.810;4.442;2023-03-11T09:28:38;9.68;;;3.03;;
23608;SDS011;11982;50.810;4.442;2023-03-11T09:31:04;11.88;;;2.22;;
23608;SDS011;11982;50.810;4.442;2023-03-11T09:33:29;9.77;;;1.63;;
23608;SDS011;11982;50.810;4.442;2023-03-11T09:35:56;11.65;;;1.80;;
23608;SDS011;11982;50.810;4.442;2023-03-11T09:38:23;11.40;;;2.35;;
23608;SDS011;11982;50.810;4.442;2023-03-11T09:43:39;10.77;;;1.90;;
23608;SDS011;11982;50.810;4.442;2023-03-11T09:49:13;9.57;;;1.95;;
23608;SDS011;11982;50.810;4.442;2023-03-11T09:51:56;12.52;;;2.78;;
23608;SDS011;11982;50.810;4.442;2023-03-11T09:54:36;11.32;;;2.08;;
23608;SDS011;11982;50.810;4.442;2023-03-11T09:57:04;7.97;;;1.95;;
23608;SDS011;11982;50.810;4.442;2023-03-11T09:59:33;8.82;;;1.90;;
23608;SDS011;11982;50.810;4.442;2023-03-11T10:02:02;6.07;;;1.65;;
23608;SDS011;11982;50.810;4.442;2023-03-11T10:04:49;9.63;;;1.67;;
23608;SDS011;11982;50.810;4.442;2023-03-11T10:07:24;8.40;;;1.60;;
23608;SDS011;11982;50.810;4.442;2023-03-11T10:09:56;12.85;;;2.00;;
23608;SDS011;11982;50.810;4.442;2023-03-11T10:23:14;7.50;;;1.48;;
23608;SDS011;11982;50.810;4.442;2023-03-11T10:28:16;12.32;;;2.17;;
23608;SDS011;11982;50.810;4.442;2023-03-11T10:30:55;8.52;;;1.77;;
23608;SDS011;11982;50.810;4.442;2023-03-11T10:33:35;8.93;;;2.97;;
23608;SDS011;11982;50.810;4.442;2023-03-11T10:36:05;6.10;;;1.83;;
23608;SDS011;11982;50.810;4.442;2023-03-11T10:38:39;8.82;;;1.80;;
23608;SDS011;11982;50.810;4.442;2023-03-11T10:41:19;8.35;;;1.60;;
23608;SDS011;11982;50.810;4.442;2023-03-11T10:44:03;9.07;;;1.77;;
23608;SDS011;11982;50.810;4.442;2023-03-11T10:46:35;6.50;;;1.50;;
23608;SDS011;11982;50.810;4.442;2023-03-11T10:49:01;8.20;;;2.17;;
23608;SDS011;11982;50.810;4.442;2023-03-11T10:51:30;8.38;;;1.95;;
23608;SDS011;11982;50.810;4.442;2023-03-11T10:53:59;7.13;;;2.25;;
23608;SDS011;11982;50.810;4.442;2023-03-11T10:59:01;8.88;;;2.50;;
23608;SDS011;11982;50.810;4.442;2023-03-11T11:01:28;10.90;;;2.35;;
23608;SDS011;11982;50.810;4.442;2023-03-11T11:03:55;11.98;;;1.90;;
23608;SDS011;11982;50.810;4.442;2023-03-11T11:06:31;8.35;;;1.77;;
23608;SDS011;11982;50.810;4.442;2023-03-11T11:09:09;6.55;;;1.83;;
23608;SDS011;11982;50.810;4.442;2023-03-11T11:17:16;6.22;;;1.67;;
23608;SDS011;11982;50.810;4.442;2023-03-11T11:19:45;11.13;;;1.90;;
23608;SDS011;11982;50.810;4.442;2023-03-11T11:22:17;5.85;;;1.95;;
23608;SDS011;11982;50.810;4.442;2023-03-11T11:24:45;16.23;;;4.47;;
23608;SDS011;11982;50.810;4.442;2023-03-11T11:27:23;7.53;;;2.50;;
23608;SDS011;11982;50.810;4.442;2023-03-11T11:32:34;10.32;;;2.38;;
23608;SDS011;11982;50.810;4.442;2023-03-11T11:35:01;10.77;;;2.08;;
23608;SDS011;11982;50.810;4.442;2023-03-11T11:37:31;3.83;;;1.70;;
23608;SDS011;11982;50.810;4.442;2023-03-11T11:40:43;10.05;;;1.95;;
23608;SDS011;11982;50.810;4.442;2023-03-11T11:45:25;7.28;;;2.00;;
23608;SDS011;11982;50.810;4.442;2023-03-11T11:48:24;8.23;;;1.60;;
23608;SDS011;11982;50.810;4.442;2023-03-11T11:50:55;6.18;;;1.88;;
23608;SDS011;11982;50.810;4.442;2023-03-11T11:53:33;10.98;;;1.58;;
23608;SDS011;11982;50.810;4.442;2023-03-11T11:56:11;10.40;;;1.98;;
23608;SDS011;11982;50.810;4.442;2023-03-11T11:58:38;11.30;;;1.40;;
23608;SDS011;11982;50.810;4.442;2023-03-11T12:04:04;10.18;;;1.85;;
23608;SDS011;11982;50.810;4.442;2023-03-11T12:12:39;9.80;;;1.58;;
23608;SDS011;11982;50.810;4.442;2023-03-11T12:15:25;6.35;;;1.85;;
23608;SDS011;11982;50.810;4.442;2023-03-11T12:17:56;8.05;;;1.67;;
23608;SDS011;11982;50.810;4.442;2023-03-11T12:30:51;7.97;;;1.65;;
23608;SDS011;11982;50.810;4.442;2023-03-11T12:35:54;6.73;;;1.40;;
23608;SDS011;11982;50.810;4.442;2023-03-11T12:38:35;11.75;;;1.90;;
23608;SDS011;11982;50.810;4.442;2023-03-11T12:46:07;6.55;;;1.63;;
23608;SDS011;11982;50.810;4.442;2023-03-11T12:51:06;7.95;;;1.60;;
23608;SDS011;11982;50.810;4.442;2023-03-11T12:53:52;10.27;;;1.50;;
23608;SDS011;11982;50.810;4.442;2023-03-11T12:56:30;7.32;;;1.70;;
23608;SDS011;11982;50.810;4.442;2023-03-11T13:12:45;10.00;;;1.80;;
23608;SDS011;11982;50.810;4.442;2023-03-11T13:18:29;7.90;;;1.67;;
23608;SDS011;11982;50.810;4.442;2023-03-11T13:20:48;14.05;;;1.77;;
23608;SDS011;11982;50.810;4.442;2023-03-11T13:31:38;9.45;;;1.73;;
23608;SDS011;11982;50.810;4.442;2023-03-11T13:37:02;6.03;;;1.70;;
23608;SDS011;11982;50.810;4.442;2023-03-11T13:42:41;6.88;;;1.27;;
23608;SDS011;11982;50.810;4.442;2023-03-11T13:45:32;7.10;;;1.80;;
23608;SDS011;11982;50.810;4.442;2023-03-11T13:48:22;9.43;;;2.20;;
23608;SDS011;11982;50.810;4.442;2023-03-11T13:50:59;10.70;;;2.03;;
23608;SDS011;11982;50.810;4.442;2023-03-11T13:53:33;9.93;;;2.25;;
23608;SDS011;11982;50.810;4.442;2023-03-11T13:56:15;9.70;;;1.80;;
23608;SDS011;11982;50.810;4.442;2023-03-11T13:58:42;6.50;;;1.70;;
23608;SDS011;11982;50.810;4.442;2023-03-11T14:01:09;8.70;;;1.90;;
23608;SDS011;11982;50.810;4.442;2023-03-11T14:03:41;5.70;;;1.50;;
23608;SDS011;11982;50.810;4.442;2023-03-11T14:06:09;10.15;;;2.25;;
23608;SDS011;11982;50.810;4.442;2023-03-11T14:08:40;11.25;;;1.85;;
23608;SDS011;11982;50.810;4.442;2023-03-11T14:13:41;13.57;;;2.70;;
23608;SDS011;11982;50.810;4.442;2023-03-11T14:18:41;5.85;;;1.75;;
23608;SDS011;11982;50.810;4.442;2023-03-11T14:21:18;8.15;;;1.70;;
23608;SDS011;11982;50.810;4.442;2023-03-11T14:23:46;6.30;;;2.08;;
23608;SDS011;11982;50.810;4.442;2023-03-11T14:26:14;12.45;;;1.73;;
23608;SDS011;11982;50.810;4.442;2023-03-11T14:28:44;8.10;;;1.98;;
23608;SDS011;11982;50.810;4.442;2023-03-11T14:31:23;10.93;;;1.98;;
23608;SDS011;11982;50.810;4.442;2023-03-11T14:33:54;8.00;;;1.80;;
23608;SDS011;11982;50.810;4.442;2023-03-11T14:36:20;6.22;;;1.77;;
23608;SDS011;11982;50.810;4.442;2023-03-11T14:38:46;7.57;;;1.77;;
23608;SDS011;11982;50.810;4.442;2023-03-11T14:41:12;5.78;;;1.83;;
23608;SDS011;11982;50.810;4.442;2023-03-11T14:43:40;9.63;;;2.10;;
23608;SDS011;11982;50.810;4.442;2023-03-11T14:46:09;9.98;;;2.05;;
23608;SDS011;11982;50.810;4.442;2023-03-11T14:48:43;6.43;;;2.03;;
23608;SDS011;11982;50.810;4.442;2023-03-11T14:51:14;10.38;;;1.58;;
23608;SDS011;11982;50.810;4.442;2023-03-11T14:53:44;7.97;;;1.77;;
23608;SDS011;11982;50.810;4.442;2023-03-11T14:56:27;5.05;;;1.83;;
23608;SDS011;11982;50.810;4.442;2023-03-11T14:59:00;5.97;;;2.10;;
23608;SDS011;11982;50.810;4.442;2023-03-11T15:01:38;6.65;;;1.90;;
23608;SDS011;11982;50.810;4.442;2023-03-11T15:04:12;12.50;;;1.60;;
23608;SDS011;11982;50.810;4.442;2023-03-11T15:06:52;5.55;;;1.70;;
23608;SDS011;11982;50.810;4.442;2023-03-11T15:09:19;10.48;;;1.63;;
23608;SDS011;11982;50.810;4.442;2023-03-11T15:14:21;6.05;;;1.83;;
23608;SDS011;11982;50.810;4.442;2023-03-11T15:16:47;5.72;;;1.85;;
23608;SDS011;11982;50.810;4.442;2023-03-11T15:19:21;6.82;;;1.45;;
23608;SDS011;11982;50.810;4.442;2023-03-11T15:21:50;15.52;;;2.10;;
23608;SDS011;11982;50.810;4.442;2023-03-11T15:24:24;9.80;;;1.65;;
23608;SDS011;11982;50.810;4.442;2023-03-11T15:26:52;4.93;;;1.65;;
23608;SDS011;11982;50.810;4.442;2023-03-11T15:29:20;5.57;;;1.77;;
23608;SDS011;11982;50.810;4.442;2023-03-11T15:31:46;9.68;;;2.05;;
23608;SDS011;11982;50.810;4.442;2023-03-11T15:36:43;8.95;;;1.80;;
23608;SDS011;11982;50.810;4.442;2023-03-11T15:39:13;8.52;;;2.03;;
23608;SDS011;11982;50.810;4.442;2023-03-11T15:44:36;6.10;;;1.45;;
23608;SDS011;11982;50.810;4.442;2023-03-11T15:47:15;9.45;;;1.83;;
23608;SDS011;11982;50.810;4.442;2023-03-11T15:49:42;9.93;;;1.88;;
23608;SDS011;11982;50.810;4.442;2023-03-11T15:52:08;7.93;;;1.90;;
23608;SDS011;11982;50.810;4.442;2023-03-11T15:54:34;7.50;;;2.10;;
23608;SDS011;11982;50.810;4.442;2023-03-11T15:57:00;10.82;;;1.83;;
23608;SDS011;11982;50.810;4.442;2023-03-11T15:59:30;7.88;;;2.00;;
23608;SDS011;11982;50.810;4.442;2023-03-11T16:01:57;2.97;;;1.45;;
23608;SDS011;11982;50.810;4.442;2023-03-11T16:04:23;7.03;;;1.67;;
23608;SDS011;11982;50.810;4.442;2023-03-11T16:06:49;13.95;;;2.60;;
23608;SDS011;11982;50.810;4.442;2023-03-11T16:09:15;7.00;;;2.08;;
23608;SDS011;11982;50.810;4.442;2023-03-11T16:11:41;5.32;;;2.45;;
23608;SDS011;11982;50.810;4.442;2023-03-11T16:16:41;12.05;;;2.80;;
23608;SDS011;11982;50.810;4.442;2023-03-11T16:19:07;13.90;;;2.70;;
23608;SDS011;11982;50.810;4.442;2023-03-11T16:21:38;11.57;;;4.18;;
23608;SDS011;11982;50.810;4.442;2023-03-11T16:24:06;15.52;;;4.40;;
23608;SDS011;11982;50.810;4.442;2023-03-11T16:26:35;10.10;;;3.80;;
23608;SDS011;11982;50.810;4.442;2023-03-11T16:29:01;5.20;;;2.25;;
23608;SDS011;11982;50.810;4.442;2023-03-11T16:31:27;8.20;;;2.65;;
23608;SDS011;11982;50.810;4.442;2023-03-11T16:33:54;13.93;;;3.25;;
23608;SDS011;11982;50.810;4.442;2023-03-11T16:36:19;8.02;;;3.25;;
23608;SDS011;11982;50.810;4.442;2023-03-11T16:38:46;10.95;;;3.25;;
23608;SDS011;11982;50.810;4.442;2023-03-11T16:41:14;7.15;;;2.22;;
23608;SDS011;11982;50.810;4.442;2023-03-11T16:43:40;9.23;;;2.03;;